• Join FlightAware (Why Join?)
  • Login
  • US Flag 
09:58PM EST


 

Airport Tracker/Info


-or-


 

Live Flight TrackerFlight Track Log ✈ SWA2004 ✈ 21-Apr-2013 ✈ KBWI - KFLL

Flight Track Log - Related Links

Times and Time Zones

All times are in EDT time to prevent confusion due to time zone crossing. See the SWA2004 flight status page for this flight to view local times or setup timezone preferences in your user account.

Time Position Orientation Groundspeed Altitude Reporting Facility
EDT Latitude Longitude Course Direction KTS MPH feet Rate Location/Type
04:07PM 39.1833 -76.7667 284° West 208 239 3,500  Level Potomac TRACON
04:08PM 39.2000 -76.8500 284° West 261 300 6,600 3,600 Climbing Potomac TRACON
04:09PM 39.2167 -76.9500 282° West 275 316 10,700 3,000 Climbing Potomac TRACON
04:10PM 39.2167 -77.0500 270° West 332 382 12,600 2,580 Climbing Potomac TRACON
04:11PM 39.1833 -77.1667 250° West 365 420 15,900 3,060 Climbing Potomac TRACON
04:12PM 39.1000 -77.2500 218° Southwest 362 417 18,800 2,760 Climbing Potomac TRACON
04:13PM 39.0167 -77.3167 212° Southwest 375 432 21,500 2,040 Climbing Potomac TRACON
04:14PM 38.9167 -77.3500 195° South 406 467 23,000 1,140 Climbing Potomac TRACON
04:16PM 38.6956 -77.4031 191° South 406 467 25,200 1,320 Climbing Washington Center
04:17PM 38.5842 -77.4561 200° South 401 461 27,100 1,380 Climbing Washington Center
04:18PM 38.4811 -77.5172 205° Southwest 401 461 28,000 420 Climbing Washington Center
04:19PM 38.3839 -77.5836 208° Southwest 401 461 28,000  Level Washington Center
04:20PM 38.3156 -77.6903 231° Southwest 388 447 28,000  Level Washington Center
04:21PM 38.2469 -77.7967 231° Southwest 394 453 28,000  Level Washington Center
04:22PM 38.1761 -77.9056 230° Southwest 399 459 28,000 660 Level Washington Center
04:23PM 38.1072 -78.0117 230° Southwest 399 459 29,400 1,740 Climbing Washington Center
04:24PM 38.0383 -78.1175 230° Southwest 394 453 31,500 1,260 Climbing Washington Center
04:25PM 37.9761 -78.1972 225° Southwest 389 448 32,000 240 Climbing Washington Center
04:26PM 37.8908 -78.2758 216° Southwest 375 432 32,000 540 Level Washington Center
04:27PM 37.7994 -78.3592 216° Southwest 375 432 33,100 1,380 Climbing Washington Center
04:28PM 37.7161 -78.4403 218° Southwest 380 437 34,800 1,560 Climbing Washington Center
04:29PM 37.6350 -78.5158 216° Southwest 375 432 36,300 1,440 Climbing Washington Center
04:30PM 37.5539 -78.5939 217° Southwest 375 432 37,700 840 Climbing Washington Center
04:31PM 37.4792 -78.6617 216° Southwest 375 432 38,000 120 Climbing Washington Center
04:32PM 37.3958 -78.7392 216° Southwest 375 432 38,000  Level Washington Center
04:33PM 37.3122 -78.8167 216° Southwest 375 432 38,000  Level Washington Center
04:34PM 37.2289 -78.8942 217° Southwest 375 432 38,000  Level Washington Center
04:35PM 37.1453 -78.9714 216° Southwest 375 432 38,000  Level Washington Center
04:36PM 37.0553 -79.0558 217° Southwest 375 432 38,000  Level Washington Center
04:37PM 36.9739 -79.1303 216° Southwest 375 432 38,000  Level Washington Center
04:38PM 36.8903 -79.2069 216° Southwest 375 432 38,000  Level Washington Center
04:39PM 36.8086 -79.2836 217° Southwest 375 432 38,000  Level Washington Center
04:40PM 36.7250 -79.3572 215° Southwest 375 432 38,000  Level Washington Center
04:41PM 36.6494 -79.4286 217° Southwest 375 432 38,000  Level Washington Center
04:42PM 36.5658 -79.5047 216° Southwest 375 432 38,000  Level Washington Center
04:43PM 36.4839 -79.5806 217° Southwest 375 432 38,000  Level Washington Center
04:46PM 36.2719 -79.7689 216° Southwest 373 429 38,000  Level Atlanta Center
04:47PM 36.1869 -79.8456 216° Southwest 373 429 38,000  Level Atlanta Center
04:48PM 36.1019 -79.9217 216° Southwest 378 435 38,000  Level Atlanta Center
04:49PM 36.0144 -79.9906 212° Southwest 378 435 38,000  Level Atlanta Center
04:50PM 35.9261 -80.0333 201° Southwest 378 435 38,000  Level Atlanta Center
04:51PM 35.8275 -80.0817 202° Southwest 378 435 38,000  Level Atlanta Center
04:52PM 35.7311 -80.1325 203° Southwest 384 442 38,000  Level Atlanta Center
04:53PM 35.6347 -80.1831 203° Southwest 384 442 38,000  Level Atlanta Center
04:54PM 35.5383 -80.2333 203° Southwest 384 442 38,000  Level Atlanta Center
04:55PM 35.4294 -80.2869 202° Southwest 384 442 38,000  Level Atlanta Center
04:56PM 35.3369 -80.3319 202° Southwest 384 442 38,000  Level Atlanta Center
04:57PM 35.2361 -80.3847 203° Southwest 384 442 38,000  Level Atlanta Center
04:58PM 35.1375 -80.4322 202° Southwest 391 450 38,000  Level Atlanta Center
04:59PM 35.0386 -80.4797 201° Southwest 391 450 38,000  Level Atlanta Center
05:00PM 34.9397 -80.5269 201° Southwest 391 450 38,000  Level Atlanta Center
05:02PM 34.7008 -80.6450 202° Southwest 390 449 38,000  Level Jacksonville Center
05:03PM 34.6017 -80.6956 203° Southwest 390 449 38,000  Level Jacksonville Center
05:04PM 34.4978 -80.7108 187° South 408 470 38,000  Level Jacksonville Center
05:05PM 34.3792 -80.7314 188° South 403 464 38,000  Level Jacksonville Center
05:06PM 34.2919 -80.7486 189° South 403 464 38,000  Level Jacksonville Center
05:07PM 34.1689 -80.7642 186° South 393 452 38,000  Level Jacksonville Center
05:08PM 34.0692 -80.7767 186° South 393 452 38,000  Level Jacksonville Center
05:09PM 33.9567 -80.7944 187° South 393 452 38,000  Level Jacksonville Center
05:10PM 33.8483 -80.8119 188° South 398 458 38,000  Level Jacksonville Center
05:11PM 33.7403 -80.8297 188° South 403 464 38,000  Level Jacksonville Center
05:12PM 33.6278 -80.8447 186° South 409 471 38,000  Level Jacksonville Center
05:13PM 33.5175 -80.8597 186° South 409 471 38,000  Level Jacksonville Center
05:14PM 33.4050 -80.8772 187° South 409 471 38,000  Level Jacksonville Center
05:15PM 33.2947 -80.8944 187° South 409 471 38,000  Level Jacksonville Center
05:16PM 33.1842 -80.9094 186° South 409 471 38,000  Level Jacksonville Center
05:17PM 33.0697 -80.9269 187° South 409 471 38,000  Level Jacksonville Center
05:18PM 32.9822 -80.9386 186° South 409 471 38,000  Level Jacksonville Center
05:19PM 32.8511 -80.9589 187° South 409 471 38,000  Level Jacksonville Center
05:20PM 32.7408 -80.9736 186° South 409 471 38,000  Level Jacksonville Center
05:21PM 32.6325 -80.9883 187° South 409 471 38,000  Level Jacksonville Center
05:22PM 32.5261 -81.0053 188° South 404 465 38,000  Level Jacksonville Center
05:23PM 32.4200 -81.0197 187° South 404 465 38,000  Level Jacksonville Center
05:24PM 32.3075 -81.0369 187° South 379 436 38,000  Level Jacksonville Center
05:25PM 32.2033 -81.0486 185° South 384 442 38,000  Level Jacksonville Center
05:26PM 32.1033 -81.0631 187° South 390 449 38,000  Level Jacksonville Center
05:27PM 31.9950 -81.0822 189° South 399 459 38,000  Level Jacksonville Center
05:28PM 31.8867 -81.0942 185° South 394 453 38,000  Level Jacksonville Center
05:29PM 31.7844 -81.1108 188° South 382 440 38,000  Level Jacksonville Center
05:30PM 31.6636 -81.1278 187° South 394 453 38,000  Level Jacksonville Center
05:31PM 31.5594 -81.1419 187° South 389 448 38,000  Level Jacksonville Center
05:32PM 31.4614 -81.1561 187° South 384 442 38,000  Level Jacksonville Center
05:33PM 31.3406 -81.1728 187° South 394 453 38,000  Level Jacksonville Center
05:34PM 31.2319 -81.1725 180° South 399 459 38,000  Level Jacksonville Center
05:35PM 31.1192 -81.1672 178° South 404 465 38,000  Level Jacksonville Center
05:36PM 31.0106 -81.1667 180° South 399 459 38,000  Level Jacksonville Center
05:37PM 30.9000 -81.1614 178° South 399 459 38,000  Level Jacksonville Center
05:38PM 30.7914 -81.1586 179° South 404 465 38,000  Level Jacksonville Center
05:39PM 30.6806 -81.1558 179° South 399 459 38,000  Level Jacksonville Center
05:40PM 30.5678 -81.1531 179° South 399 459 38,000  Level Jacksonville Center
05:41PM 30.4572 -81.1478 178° South 404 465 38,000  Level Jacksonville Center
05:42PM 30.3444 -81.1450 179° South 404 465 38,000  Level Jacksonville Center
05:43PM 30.2294 -81.1400 178° South 404 465 38,000  Level Jacksonville Center
05:44PM 30.1125 -81.1397 180° South 410 472 38,000  Level Jacksonville Center
05:45PM 29.9767 -81.1325 177° South 410 472 38,000  Level Jacksonville Center
05:46PM 29.8389 -81.1303 179° South 415 478 38,000  Level Jacksonville Center
05:47PM 29.7197 -81.1278 179° South 420 483 38,000  Level Jacksonville Center
05:48PM 29.6028 -81.1250 179° South 420 483 38,000  Level Jacksonville Center
05:49PM 29.4881 -81.1222 179° South 420 483 38,000  Level Jacksonville Center
05:51PM 29.2689 -81.0856 172° South 426 490 38,000  Level Miami Center
05:52PM 29.1700 -80.9750 136° Southeast 437 503 38,000  Level Miami Center
05:53PM 29.0731 -80.8669 136° Southeast 466 536 38,000  Level Miami Center
05:54PM 28.9717 -80.7589 137° Southeast 478 550 38,000  Level Miami Center
05:55PM 28.8764 -80.6558 137° Southeast 483 556 38,000  Level Miami Center
05:56PM 28.7769 -80.5483 137° Southeast 490 564 38,000  Level Miami Center
05:57PM 28.6925 -80.4250 128° Southeast 490 564 38,000  Level Miami Center
05:58PM 28.6522 -80.2817 108° East 506 582 38,000  Level Miami Center
05:59PM 28.5633 -80.1514 128° Southeast 484 557 38,000  Level Miami Center
06:00PM 28.4475 -80.1103 163° South 431 496 38,000  Level Miami Center
06:01PM 28.3314 -80.0761 165° South 426 490 38,000 -360 Level Miami Center
06:02PM 28.2175 -80.0400 164° South 431 496 37,300 -840 Descending Miami Center
06:03PM 28.1117 -80.0086 165° South 431 496 36,400 -660 Descending Miami Center
06:04PM 27.9767 -79.9719 167° South 442 509 36,000 -600 Descending Miami Center
06:05PM 27.8814 -79.9436 165° South 447 514 35,300 -1,200 Descending Miami Center
06:06PM 27.7444 -79.9022 165° South 452 520 33,600 -1,920 Descending Miami Center
06:07PM 27.6283 -79.8686 166° South 439 505 31,500 -2,100 Descending Miami Center
06:08PM 27.5142 -79.8353 165° South 428 493 29,400 -2,280 Descending Miami Center
06:09PM 27.3917 -79.8017 166° South 428 493 27,000 -2,100 Descending Miami Center
06:10PM 27.2858 -79.7711 166° South 409 471 25,200 -1,800 Descending Miami Center
06:11PM 27.1842 -79.7381 164° South 393 452 23,500 -1,740 Descending Miami Center
06:12PM 27.0947 -79.7103 165° South 376 433 21,800 -1,680 Descending Miami Center
06:13PM 26.9972 -79.6822 166° South 371 427 20,200 -1,440 Descending Miami Center
06:14PM 26.8914 -79.6517 166° South 365 420 19,000 -1,020 Descending Miami Center
06:15PM 26.8181 -79.6547 182° South 347 399 18,200 -1,800 Descending Miami Center
06:16PM 26.7106 -79.7031 202° Southwest 340 391 15,500 -2,700 Descending Miami Center
06:17PM 26.6283 -79.7408 202° Southwest 354 407 12,900 -2,760 Descending Miami Center
06:18PM 26.5967 -79.7586 207° Southwest 364 419 12,100 -2,880 Descending Miami Center
06:18PM 26.5442 -79.7828 202° Southwest 364 419 10,700 -1,740 Descending Miami Center
06:19PM 26.4514 -79.8153 197° South 326 375 9,500 -480 Descending Miami Center
06:20PM 26.3881 -79.8531 208° Southwest 257 296 9,800 -360 Climbing Miami Center
06:21PM 26.3283 -79.9119 221° Southwest 293 337 8,800 -900 Descending Miami Center
06:22PM 26.2644 -79.9750 222° Southwest 289 333 8,000 -420 Descending Miami Center
06:23PM 26.2111 -80.0222 218° Southwest 222 255 8,000 -600 Level Miami Center
06:24PM 26.1722 -80.0769 232° Southwest 216 249 6,900 -1,080 Descending Miami Center
06:25PM 26.1564 -80.1389 254° West 221 254 5,800 -1,260 Descending Miami Center
06:26PM 26.1506 -80.2128 265° West 229 264 4,400 -900 Descending Miami Center
06:27PM 26.1489 -80.2797 268° West 210 242 4,000 -420 Descending Miami Center
06:28PM 26.1411 -80.3444 262° West 186 214 3,500 -780 Descending Miami Center
06:29PM 26.0928 -80.3547 191° South 182 209 2,400 -780 Descending Miami Center
06:30PM 26.0750 -80.3100 114° Southeast 181 208 2,000 -480 Descending Miami Center
06:31PM 26.0742 -80.2569 91° East 174 200 1,500 -600 Descending Miami Center
06:32PM 26.0753 -80.2131 88° East 138 159 800 -720 Descending Miami Center
06:34PM 26.0667 -80.1500 103° East  Level FlightAware Approximate
06:41PM 26.0726 -80.1527 103° East  Level Estimated